createdAt,value
2019-06-10T00:01:57.426Z,2.27
2019-06-10T00:04:27.622Z,2.87
2019-06-10T00:06:57.763Z,2.37
2019-06-10T00:09:27.317Z,2.40
2019-06-10T00:11:58.330Z,2.40
2019-06-10T00:14:28.210Z,2.30
2019-06-10T00:16:59.514Z,1.97
2019-06-10T00:19:31.578Z,2.37
2019-06-10T00:22:02.438Z,2.47
2019-06-10T00:24:32.277Z,2.50
2019-06-10T00:27:02.935Z,2.10
2019-06-10T00:29:33.825Z,2.20
2019-06-10T00:32:06.534Z,2.10
2019-06-10T00:34:35.392Z,1.93
2019-06-10T00:37:07.342Z,2.30
2019-06-10T00:39:36.946Z,2.27
2019-06-10T00:42:09.426Z,2.00
2019-06-10T00:44:37.847Z,2.30
2019-06-10T00:47:12.255Z,2.10
2019-06-10T00:49:40.954Z,2.00
2019-06-10T00:52:12.165Z,2.57
2019-06-10T00:54:41.818Z,2.07
2019-06-10T00:57:13.655Z,2.00
2019-06-10T00:59:43.549Z,2.60
2019-06-10T01:02:14.554Z,2.00
2019-06-10T01:04:44.581Z,2.27
2019-06-10T01:07:15.055Z,1.97
2019-06-10T01:09:44.679Z,2.40
2019-06-10T01:12:14.927Z,2.20
2019-06-10T01:14:45.048Z,2.20
2019-06-10T01:17:15.624Z,2.13
2019-06-10T01:19:45.368Z,2.33
2019-06-10T01:22:17.202Z,2.27
2019-06-10T01:24:47.380Z,2.20
2019-06-10T01:27:18.083Z,2.53
2019-06-10T01:29:50.944Z,2.30
2019-06-10T01:32:21.674Z,2.27
2019-06-10T01:34:52.158Z,2.33
2019-06-10T01:37:23.712Z,2.30
2019-06-10T01:39:53.709Z,2.00
2019-06-10T01:42:23.858Z,2.43
2019-06-10T01:44:53.778Z,2.27
2019-06-10T01:47:23.761Z,2.73
2019-06-10T01:49:54.243Z,2.30
2019-06-10T01:52:24.536Z,2.80
2019-06-10T01:54:54.789Z,2.53
2019-06-10T01:57:24.835Z,2.67
2019-06-10T01:59:54.826Z,2.60
2019-06-10T02:02:25.318Z,1.97
2019-06-10T02:04:55.691Z,2.67
2019-06-10T02:07:25.921Z,2.83
2019-06-10T02:09:56.350Z,2.20
2019-06-10T02:12:26.667Z,2.43
2019-06-10T02:14:56.897Z,2.37
2019-06-10T02:17:28.413Z,2.10
2019-06-10T02:20:00.991Z,2.60
2019-06-10T02:22:31.806Z,2.13
2019-06-10T02:25:02.017Z,2.70
2019-06-10T02:27:32.474Z,2.73
2019-06-10T02:30:13.521Z,2.00
2019-06-10T02:32:37.809Z,2.30
2019-06-10T02:35:14.316Z,2.57
2019-06-10T02:37:38.990Z,2.27
2019-06-10T02:40:09.118Z,2.60
2019-06-10T02:42:43.567Z,2.53
2019-06-10T02:45:18.275Z,2.50
2019-06-10T02:47:46.576Z,2.30
2019-06-10T02:50:23.167Z,2.57
2019-06-10T02:52:53.057Z,1.90
2019-06-10T02:55:30.484Z,2.70
2019-06-10T02:57:55.145Z,2.17
2019-06-10T03:00:37.063Z,2.80
2019-06-10T03:02:57.657Z,2.60
2019-06-10T03:05:39.081Z,2.50
2019-06-10T03:08:03.671Z,2.00
2019-06-10T03:10:36.694Z,2.17
2019-06-10T03:13:04.417Z,2.47
2019-06-10T03:15:36.674Z,2.30
2019-06-10T03:18:07.417Z,2.70
2019-06-10T03:20:37.766Z,2.53
2019-06-10T03:23:08.849Z,2.43
2019-06-10T03:25:39.362Z,2.50
2019-06-10T03:28:11.969Z,2.90
2019-06-10T03:30:52.749Z,2.90
2019-06-10T03:33:13.913Z,2.83
2019-06-10T03:35:45.209Z,2.43
2019-06-10T03:38:16.166Z,3.33
2019-06-10T03:40:46.432Z,2.73
2019-06-10T03:43:16.910Z,2.60
2019-06-10T03:45:47.436Z,2.93
2019-06-10T03:48:19.047Z,2.80
2019-06-10T03:50:49.472Z,2.47
2019-06-10T03:53:21.284Z,3.23
2019-06-10T03:55:52.684Z,2.53
2019-06-10T03:58:25.949Z,2.47
2019-06-10T04:00:55.541Z,2.43
2019-06-10T04:03:28.154Z,2.63
2019-06-10T04:06:02.136Z,2.90
2019-06-10T04:08:33.582Z,2.53
2019-06-10T04:11:05.553Z,3.07
2019-06-10T04:13:36.557Z,2.90
2019-06-10T04:16:07.079Z,2.87
2019-06-10T04:18:39.099Z,3.00
2019-06-10T04:21:12.919Z,3.20
2019-06-10T04:23:45.125Z,3.03
2019-06-10T04:26:18.141Z,3.50
2019-06-10T04:28:49.786Z,2.80
2019-06-10T04:31:23.795Z,3.30
2019-06-10T04:33:55.549Z,3.13
2019-06-10T04:36:29.110Z,3.23
2019-06-10T04:39:03.013Z,3.23
2019-06-10T04:41:33.251Z,2.70
2019-06-10T04:44:04.624Z,2.83
2019-06-10T04:46:36.342Z,3.00
2019-06-10T04:49:07.602Z,3.03
2019-06-10T04:51:38.827Z,2.90
2019-06-10T04:54:10.253Z,3.00
2019-06-10T04:56:42.830Z,3.50
2019-06-10T04:59:13.902Z,3.10
2019-06-10T05:01:44.864Z,3.23
2019-06-10T05:04:15.938Z,3.23
2019-06-10T05:06:47.437Z,3.40
2019-06-10T05:09:19.102Z,3.13
2019-06-10T05:11:52.112Z,3.60
2019-06-10T05:14:25.029Z,3.30
2019-06-10T05:16:55.913Z,4.03
2019-06-10T05:19:28.051Z,3.40
2019-06-10T05:22:12.422Z,4.00
2019-06-10T05:24:44.023Z,3.80
2019-06-10T05:27:15.993Z,3.90
2019-06-10T05:29:47.133Z,3.47
2019-06-10T05:32:18.084Z,3.57
2019-06-10T05:34:52.651Z,3.53
2019-06-10T05:37:25.185Z,3.87
2019-06-10T05:39:56.172Z,3.83
2019-06-10T05:42:28.190Z,4.17
2019-06-10T05:45:00.116Z,3.40
2019-06-10T05:47:35.632Z,3.67
2019-06-10T05:50:04.297Z,3.57
2019-06-10T05:52:35.753Z,3.23
2019-06-10T05:55:07.297Z,3.43
2019-06-10T05:57:38.650Z,3.50
2019-06-10T06:00:14.075Z,3.60
2019-06-10T06:02:43.374Z,3.17
2019-06-10T06:05:15.106Z,3.70
2019-06-10T06:08:01.060Z,3.40
2019-06-10T06:10:22.124Z,3.43
2019-06-10T06:12:53.333Z,3.27
2019-06-10T06:15:27.479Z,3.60
2019-06-10T06:18:07.188Z,3.03
2019-06-10T06:20:34.157Z,3.23
2019-06-10T06:23:04.845Z,3.40
2019-06-10T06:25:40.951Z,3.60
2019-06-10T06:28:09.217Z,3.73
2019-06-10T06:30:42.324Z,3.20
2019-06-10T06:33:13.873Z,3.30
2019-06-10T06:35:46.684Z,3.67
2019-06-10T06:38:19.273Z,3.10
2019-06-10T06:40:53.535Z,3.43
2019-06-10T06:43:23.527Z,3.30
2019-06-10T06:45:54.906Z,3.93
2019-06-10T06:48:26.167Z,3.20
2019-06-10T06:51:04.454Z,3.60
2019-06-10T06:53:39.560Z,3.37
2019-06-10T06:56:05.041Z,3.50
2019-06-10T06:58:37.328Z,2.57
2019-06-10T07:01:10.996Z,3.07
2019-06-10T07:03:44.610Z,2.73
2019-06-10T07:06:14.562Z,3.13
2019-06-10T07:09:00.397Z,2.60
2019-06-10T07:11:19.140Z,2.77
2019-06-10T07:13:53.333Z,2.80
2019-06-10T07:16:23.666Z,2.90
2019-06-10T07:18:55.190Z,2.93
2019-06-10T07:21:26.728Z,3.97
2019-06-10T07:23:57.749Z,2.93
2019-06-10T07:26:29.201Z,3.00
2019-06-10T07:29:02.919Z,3.20
2019-06-10T07:31:35.247Z,2.87
2019-06-10T07:34:06.609Z,3.13
2019-06-10T07:36:39.212Z,3.67
2019-06-10T07:39:13.169Z,2.60
2019-06-10T07:41:47.525Z,2.70
2019-06-10T07:44:17.309Z,3.20
2019-06-10T07:46:53.095Z,3.30
2019-06-10T07:49:24.036Z,2.60
2019-06-10T07:51:54.902Z,3.00
2019-06-10T07:54:25.910Z,3.40
2019-06-10T07:56:57.169Z,3.27
2019-06-10T07:59:28.895Z,3.30
2019-06-10T08:01:59.949Z,2.90
2019-06-10T08:04:33.167Z,3.00
2019-06-10T08:07:04.018Z,2.73
2019-06-10T08:09:37.338Z,2.63
2019-06-10T08:12:09.768Z,2.57
2019-06-10T08:14:43.963Z,2.70
2019-06-10T08:17:16.082Z,3.27
2019-06-10T08:19:50.878Z,2.47
2019-06-10T08:22:31.312Z,3.37
2019-06-10T08:24:56.117Z,3.77
2019-06-10T08:27:28.247Z,2.90
2019-06-10T08:30:15.334Z,2.57
2019-06-10T08:32:34.245Z,2.47
2019-06-10T08:35:06.611Z,2.70
2019-06-10T08:37:40.791Z,2.83
2019-06-10T08:40:13.249Z,3.03
2019-06-10T08:42:47.478Z,2.80
2019-06-10T08:45:18.345Z,3.00
2019-06-10T08:47:54.031Z,3.10
2019-06-10T08:50:26.245Z,3.10
2019-06-10T08:53:10.417Z,2.90
2019-06-10T08:55:33.537Z,3.37
2019-06-10T08:58:05.733Z,3.03
2019-06-10T09:00:37.373Z,2.80
2019-06-10T09:03:09.757Z,3.03
2019-06-10T09:05:44.062Z,2.87
2019-06-10T09:08:19.145Z,2.77
2019-06-10T09:10:52.532Z,2.87
2019-06-10T09:13:23.419Z,2.90
2019-06-10T09:16:10.848Z,2.50
2019-06-10T09:18:28.465Z,2.80
2019-06-10T09:20:59.410Z,3.00
2019-06-10T09:23:32.903Z,2.87
2019-06-10T09:26:03.823Z,3.07
2019-06-10T09:28:40.559Z,3.37
2019-06-10T09:31:14.119Z,3.10
2019-06-10T09:33:50.341Z,2.67
2019-06-10T09:36:18.554Z,3.00
2019-06-10T09:38:54.948Z,2.90
2019-06-10T09:41:36.309Z,2.87
2019-06-10T09:43:57.997Z,3.03
2019-06-10T09:46:33.063Z,3.60
2019-06-10T09:49:05.037Z,3.00
2019-06-10T09:51:37.566Z,3.23
2019-06-10T09:54:12.604Z,3.40
2019-06-10T09:56:45.596Z,2.80
2019-06-10T09:59:17.686Z,2.57
2019-06-10T10:01:53.550Z,3.30
2019-06-10T10:04:24.122Z,3.37
2019-06-10T10:06:58.789Z,2.53
2019-06-10T10:09:34.426Z,3.13
2019-06-10T10:12:04.262Z,3.20
2019-06-10T10:14:36.463Z,2.90
2019-06-10T10:17:06.844Z,3.07
2019-06-10T10:19:45.351Z,2.80
2019-06-10T10:22:14.123Z,2.60
2019-06-10T10:24:46.220Z,2.67
2019-06-10T10:27:17.258Z,2.50
2019-06-10T10:29:54.170Z,2.97
2019-06-10T10:32:23.195Z,3.40
2019-06-10T10:34:56.552Z,3.37
2019-06-10T10:37:28.013Z,3.03
2019-06-10T10:40:03.008Z,2.73
2019-06-10T10:42:44.798Z,3.10
2019-06-10T10:45:06.717Z,3.30
2019-06-10T10:47:37.750Z,3.10
2019-06-10T10:50:08.980Z,2.90
2019-06-10T10:52:42.867Z,3.20
2019-06-10T10:55:14.372Z,2.90
2019-06-10T10:57:47.249Z,3.20
2019-06-10T11:00:18.088Z,3.40
2019-06-10T11:02:50.923Z,2.80
2019-06-10T11:05:33.974Z,3.27
2019-06-10T11:08:05.549Z,3.30
2019-06-10T11:10:36.070Z,3.03
2019-06-10T11:13:07.524Z,3.20
2019-06-10T11:15:38.844Z,3.37
2019-06-10T11:18:09.170Z,3.40
2019-06-10T11:20:39.572Z,2.90
2019-06-10T11:23:12.573Z,3.50
2019-06-10T11:25:43.261Z,3.00
2019-06-10T11:28:17.332Z,3.20
2019-06-10T11:30:55.476Z,3.13
2019-06-10T11:33:23.300Z,2.90
2019-06-10T11:35:58.052Z,3.30
2019-06-10T11:38:28.981Z,3.60
2019-06-10T11:41:00.141Z,3.10
2019-06-10T11:43:33.140Z,2.97
2019-06-10T11:46:07.513Z,2.90
2019-06-10T11:48:36.777Z,3.20
2019-06-10T11:51:33.140Z,3.23
2019-06-10T11:54:03.457Z,3.00
2019-06-10T11:56:33.810Z,3.70
2019-06-10T11:59:09.387Z,3.40
2019-06-10T12:01:36.822Z,3.90
2019-06-10T12:04:07.410Z,3.47
2019-06-10T12:06:37.854Z,3.03
2019-06-10T12:09:09.391Z,3.07
2019-06-10T12:11:43.691Z,3.50
2019-06-10T12:14:13.890Z,4.00
2019-06-10T12:17:17.628Z,4.00
2019-06-10T12:19:16.494Z,4.10
2019-06-10T12:21:47.927Z,3.60
2019-06-10T12:24:18.587Z,4.00
2019-06-10T12:26:49.810Z,3.37
2019-06-10T12:29:22.435Z,4.00
2019-06-10T12:31:57.825Z,3.37
2019-06-10T12:34:33.306Z,4.30
2019-06-10T12:37:10.635Z,3.10
2019-06-10T12:39:35.362Z,3.60
2019-06-10T12:42:06.575Z,3.60
2019-06-10T12:44:37.394Z,3.90
2019-06-10T12:47:08.418Z,3.30
2019-06-10T12:49:39.139Z,3.33
2019-06-10T12:52:09.609Z,4.27
2019-06-10T12:54:42.471Z,3.10
2019-06-10T12:57:15.578Z,4.10
2019-06-10T12:59:44.744Z,3.23
2019-06-10T13:02:23.079Z,3.40
2019-06-10T13:04:47.786Z,3.37
2019-06-10T13:07:18.799Z,3.10
2019-06-10T13:09:52.348Z,3.90
2019-06-10T13:12:27.290Z,3.60
2019-06-10T13:14:57.837Z,3.20
2019-06-10T13:17:27.646Z,4.00
2019-06-10T13:19:59.134Z,3.70
2019-06-10T13:22:29.262Z,3.80
2019-06-10T13:25:00.610Z,3.60
2019-06-10T13:27:33.538Z,3.47
2019-06-10T13:30:05.550Z,3.33
2019-06-10T13:32:37.265Z,3.27
2019-06-10T13:35:12.283Z,3.30
2019-06-10T13:37:42.870Z,3.00
2019-06-10T13:40:22.680Z,3.57
2019-06-10T13:42:53.066Z,3.37
2019-06-10T13:45:25.687Z,4.43
2019-06-10T13:47:56.740Z,3.93
2019-06-10T13:50:29.701Z,3.60
2019-06-10T13:53:01.134Z,4.03
2019-06-10T13:55:32.868Z,3.30
2019-06-10T13:58:06.188Z,3.23
2019-06-10T14:00:45.754Z,4.03
2019-06-10T14:03:10.288Z,3.57
2019-06-10T14:05:38.143Z,4.47
2019-06-10T14:08:10.949Z,3.53
2019-06-10T14:10:42.954Z,4.03
2019-06-10T14:13:15.349Z,4.10
2019-06-10T14:15:44.130Z,4.50
2019-06-10T14:18:16.512Z,4.63
2019-06-10T14:20:47.265Z,3.77
2019-06-10T14:23:17.678Z,4.70
2019-06-10T14:25:48.206Z,4.10
2019-06-10T14:28:35.885Z,5.30
2019-06-10T14:30:50.014Z,4.40
2019-06-10T14:33:19.678Z,4.50
2019-06-10T14:35:49.994Z,4.10
2019-06-10T14:38:22.046Z,4.50
2019-06-10T14:40:52.751Z,4.40
2019-06-10T14:43:23.626Z,4.37
2019-06-10T14:45:54.727Z,4.27
2019-06-10T14:48:24.761Z,4.70
2019-06-10T14:50:55.758Z,4.33
2019-06-10T14:53:27.913Z,3.93
2019-06-10T14:55:57.551Z,4.60
2019-06-10T14:58:29.036Z,3.70
2019-06-10T15:01:04.342Z,3.77
2019-06-10T15:03:32.812Z,4.07
2019-06-10T15:06:03.482Z,4.37
2019-06-10T15:08:33.429Z,4.30
2019-06-10T15:11:03.887Z,3.77
2019-06-10T15:13:37.885Z,4.23
2019-06-10T15:16:08.272Z,4.00
2019-06-10T15:18:38.581Z,4.07
2019-06-10T15:21:09.240Z,4.47
2019-06-10T15:23:39.622Z,3.60
2019-06-10T15:26:10.031Z,3.80
2019-06-10T15:28:42.818Z,4.00
2019-06-10T15:31:16.739Z,3.97
2019-06-10T15:33:54.946Z,3.97
2019-06-10T15:36:32.698Z,4.53
2019-06-10T15:39:04.404Z,4.57
2019-06-10T15:41:34.728Z,5.03
2019-06-10T15:44:04.619Z,4.57
2019-06-10T15:46:34.694Z,4.40
2019-06-10T15:49:04.580Z,4.00
2019-06-10T15:51:34.605Z,4.23
2019-06-10T15:54:04.836Z,4.10
2019-06-10T15:56:49.952Z,4.63
2019-06-10T15:59:16.756Z,4.10
2019-06-10T16:01:45.717Z,4.10
2019-06-10T16:04:17.367Z,4.33
2019-06-10T16:06:46.700Z,3.87
2019-06-10T16:09:16.958Z,3.97
2019-06-10T16:11:48.546Z,4.13
2019-06-10T16:14:21.366Z,4.90
2019-06-10T16:16:52.659Z,5.20
2019-06-10T16:19:23.474Z,4.13
2019-06-10T16:21:57.606Z,4.30
2019-06-10T16:24:28.950Z,6.30
2019-06-10T16:26:58.837Z,5.60
2019-06-10T16:29:33.399Z,5.10
2019-06-10T16:32:03.857Z,4.67
2019-06-10T16:34:34.352Z,4.33
2019-06-10T16:37:04.947Z,4.73
2019-06-10T16:39:35.066Z,4.97
2019-06-10T16:42:05.950Z,4.47
2019-06-10T16:44:36.381Z,4.67
2019-06-10T16:47:07.438Z,4.67
2019-06-10T16:49:38.003Z,4.73
2019-06-10T16:52:12.141Z,5.40
2019-06-10T16:54:42.919Z,4.53
2019-06-10T16:57:13.444Z,4.30
2019-06-10T16:59:44.076Z,4.47
2019-06-10T17:02:14.072Z,5.30
2019-06-10T17:04:44.488Z,5.17
2019-06-10T17:07:15.032Z,5.33
2019-06-10T17:09:45.255Z,5.17
2019-06-10T17:12:16.275Z,5.50
2019-06-10T17:14:47.080Z,6.10
2019-06-10T17:17:18.568Z,5.20
2019-06-10T17:19:58.557Z,5.00
2019-06-10T17:22:33.388Z,4.87
2019-06-10T17:25:04.601Z,4.73
2019-06-10T17:27:37.842Z,4.97
2019-06-10T17:30:14.052Z,5.20
2019-06-10T17:32:44.321Z,4.70
2019-06-10T17:35:14.650Z,5.40
2019-06-10T17:37:45.727Z,4.47
2019-06-10T17:40:16.237Z,6.30
2019-06-10T17:42:46.569Z,5.43
2019-06-10T17:45:17.101Z,5.10
2019-06-10T17:47:48.651Z,5.37
2019-06-10T17:50:22.317Z,6.57
2019-06-10T17:52:53.525Z,5.80
2019-06-10T17:55:26.552Z,5.70
2019-06-10T17:57:56.175Z,5.27
2019-06-10T18:00:29.317Z,5.77
2019-06-10T18:03:03.661Z,5.00
2019-06-10T18:05:35.189Z,5.50
2019-06-10T18:08:10.043Z,6.10
2019-06-10T18:10:43.418Z,6.13
2019-06-10T18:13:16.784Z,5.77
2019-06-10T18:15:48.782Z,5.93
2019-06-10T18:18:20.845Z,6.20
2019-06-10T18:20:53.580Z,6.17
2019-06-10T18:23:26.459Z,5.97
2019-06-10T18:26:02.995Z,5.93
2019-06-10T18:28:53.732Z,6.63
2019-06-10T18:31:06.905Z,6.20
2019-06-10T18:33:38.096Z,6.00
2019-06-10T18:36:09.016Z,6.60
2019-06-10T18:38:43.303Z,7.07
2019-06-10T18:41:14.801Z,6.00
2019-06-10T18:43:46.519Z,6.37
2019-06-10T18:46:17.650Z,7.03
2019-06-10T18:48:53.506Z,6.90
2019-06-10T18:51:23.609Z,6.23
2019-06-10T18:53:55.129Z,6.90
2019-06-10T18:56:29.697Z,6.90
2019-06-10T18:59:15.762Z,7.00
2019-06-10T19:01:36.793Z,7.17
2019-06-10T19:04:08.320Z,7.20
2019-06-10T19:06:40.196Z,8.27
2019-06-10T19:09:12.802Z,9.03
2019-06-10T19:11:44.748Z,7.83
2019-06-10T19:14:15.815Z,7.60
2019-06-10T19:16:46.872Z,7.73
2019-06-10T19:19:18.254Z,7.83
2019-06-10T19:22:04.645Z,8.47
2019-06-10T19:24:23.484Z,8.10
2019-06-10T19:26:58.273Z,7.03
2019-06-10T19:29:35.055Z,7.30
2019-06-10T19:32:03.694Z,8.00
2019-06-10T19:34:56.354Z,7.10
2019-06-10T19:37:27.888Z,8.30
2019-06-10T19:39:59.102Z,8.80
2019-06-10T19:42:32.951Z,7.33
2019-06-10T19:45:07.088Z,8.70
2019-06-10T19:47:45.562Z,8.37
2019-06-10T19:50:14.954Z,8.60
2019-06-10T19:52:46.418Z,8.40
2019-06-10T19:55:18.092Z,7.50
2019-06-10T19:57:49.006Z,8.70
2019-06-10T20:00:22.202Z,7.93
2019-06-10T20:02:53.268Z,7.67
2019-06-10T20:05:24.501Z,8.23
2019-06-10T20:07:55.504Z,8.70
2019-06-10T20:10:32.281Z,8.50
2019-06-10T20:13:05.221Z,7.53
2019-06-10T20:15:37.330Z,7.97
2019-06-10T20:18:12.089Z,8.60
2019-06-10T20:20:45.626Z,8.63
2019-06-10T20:23:14.934Z,9.00
2019-06-10T20:25:46.906Z,8.63
2019-06-10T20:28:22.228Z,9.70
2019-06-10T20:30:54.173Z,8.90
2019-06-10T20:33:36.383Z,8.20
2019-06-10T20:36:07.610Z,8.93
2019-06-10T20:38:40.045Z,9.07
2019-06-10T20:41:12.681Z,8.80
2019-06-10T20:43:47.160Z,9.27
2019-06-10T20:46:20.278Z,8.77
2019-06-10T20:48:54.506Z,8.53
2019-06-10T20:51:27.305Z,8.63
2019-06-10T20:53:58.385Z,8.80
2019-06-10T20:56:29.325Z,9.10
2019-06-10T20:59:02.777Z,8.97
2019-06-10T21:01:34.284Z,9.17
2019-06-10T21:04:05.301Z,9.00
2019-06-10T21:06:38.977Z,9.50
2019-06-10T21:09:13.369Z,9.57
2019-06-10T21:11:47.003Z,9.47
2019-06-10T21:14:17.164Z,9.90
2019-06-10T21:16:53.554Z,9.83
2019-06-10T21:19:24.448Z,9.90
2019-06-10T21:21:55.443Z,10.10
2019-06-10T21:24:26.448Z,9.50
2019-06-10T21:26:58.342Z,8.77
2019-06-10T21:29:29.482Z,8.70
2019-06-10T21:32:03.299Z,9.60
2019-06-10T21:34:33.510Z,8.57
2019-06-10T21:37:12.223Z,8.67
2019-06-10T21:39:44.891Z,8.53
2019-06-10T21:42:16.051Z,7.70
2019-06-10T21:44:47.928Z,8.53
2019-06-10T21:47:20.019Z,8.47
2019-06-10T21:49:53.199Z,8.60
2019-06-10T21:52:23.664Z,7.57
2019-06-10T21:54:55.111Z,9.47
2019-06-10T21:57:26.647Z,9.07
2019-06-10T21:59:57.586Z,9.80
2019-06-10T22:02:27.328Z,9.23
2019-06-10T22:04:57.295Z,9.03
2019-06-10T22:07:27.212Z,9.90
2019-06-10T22:09:57.203Z,11.30
2019-06-10T22:12:27.255Z,10.67
2019-06-10T22:14:57.225Z,10.17
2019-06-10T22:17:27.236Z,10.50
2019-06-10T22:19:57.240Z,9.90
2019-06-10T22:22:27.269Z,10.30
2019-06-10T22:24:57.642Z,10.80
2019-06-10T22:27:27.739Z,10.67
2019-06-10T22:30:02.685Z,10.77
2019-06-10T22:32:32.328Z,11.53
2019-06-10T22:35:03.009Z,11.93
2019-06-10T22:37:33.042Z,13.37
2019-06-10T22:40:03.493Z,12.80
2019-06-10T22:42:33.381Z,13.90
2019-06-10T22:45:04.056Z,13.10
2019-06-10T22:47:34.404Z,12.50
2019-06-10T22:50:07.557Z,13.33
2019-06-10T22:52:38.881Z,11.90
2019-06-10T22:55:09.097Z,12.70
2019-06-10T22:57:39.083Z,13.10
2019-06-10T23:00:09.483Z,13.50
2019-06-10T23:02:39.662Z,12.27
2019-06-10T23:05:13.241Z,13.13
2019-06-10T23:07:43.377Z,13.57
2019-06-10T23:10:13.528Z,13.80
2019-06-10T23:12:44.155Z,12.83
2019-06-10T23:15:14.184Z,12.10
2019-06-10T23:17:44.325Z,12.37
2019-06-10T23:20:14.262Z,12.40
2019-06-10T23:22:44.207Z,12.33
2019-06-10T23:25:14.268Z,13.60
2019-06-10T23:27:44.427Z,12.13
2019-06-10T23:30:15.054Z,13.30
2019-06-10T23:32:45.249Z,12.63
2019-06-10T23:35:15.268Z,13.10
2019-06-10T23:37:45.120Z,12.20
2019-06-10T23:40:15.135Z,12.40
2019-06-10T23:42:45.154Z,15.10
2019-06-10T23:45:15.802Z,13.23
2019-06-10T23:47:45.503Z,13.77
2019-06-10T23:50:15.918Z,14.93
2019-06-10T23:52:45.779Z,12.63
2019-06-10T23:55:15.912Z,12.67
2019-06-10T23:57:45.913Z,14.20
